Terminal Aerodrome Forecast
Issued by NWS

Home | Current Version | Previous Version | Text Only | Print | Product List | Glossary On
Versions: 1 2 3 4 5 6 7 8 9 10 11 12 13 14 15 16 17 18 19 20 21 22 23 24 25 26
000
FTAK31 PAFA 012340
TAFAQT
TAF
PAQT 012340Z 0200/0224 33009KT P6SM -SHRA SCT008 BKN025 OVC035
     FM020400 28010KT P6SM -SHRASN SCT008 BKN025
     FM021000 26011KT P6SM -SHSN SCT008 BKN020
     FM021600 25020KT P6SM VCSH BKN015 BKN030=

USA.gov is the U.S. government's official web portal to all federal, state and local government web resources and services.